sensor_id;sensor_type;location;lat;lon;timestamp;P1;durP1;ratioP1;P2;durP2;ratioP2
14903;SDS011;7543;53.148;8.234;2022-11-20T00:01:42;10.50;;;5.33;;
14903;SDS011;7543;53.148;8.234;2022-11-20T00:09:04;10.13;;;5.17;;
14903;SDS011;7543;53.148;8.234;2022-11-20T00:11:32;10.70;;;5.17;;
14903;SDS011;7543;53.148;8.234;2022-11-20T00:14:01;12.43;;;5.33;;
14903;SDS011;7543;53.148;8.234;2022-11-20T00:16:30;10.63;;;4.70;;
14903;SDS011;7543;53.148;8.234;2022-11-20T00:18:59;14.27;;;5.30;;
14903;SDS011;7543;53.148;8.234;2022-11-20T00:21:28;12.57;;;5.60;;
14903;SDS011;7543;53.148;8.234;2022-11-20T00:23:56;9.00;;;4.97;;
14903;SDS011;7543;53.148;8.234;2022-11-20T00:26:27;8.87;;;4.37;;
14903;SDS011;7543;53.148;8.234;2022-11-20T00:28:56;11.50;;;4.37;;
14903;SDS011;7543;53.148;8.234;2022-11-20T00:31:25;14.23;;;5.13;;
14903;SDS011;7543;53.148;8.234;2022-11-20T00:33:54;9.97;;;4.60;;
14903;SDS011;7543;53.148;8.234;2022-11-20T00:36:22;10.97;;;4.30;;
14903;SDS011;7543;53.148;8.234;2022-11-20T00:41:24;14.63;;;4.67;;
14903;SDS011;7543;53.148;8.234;2022-11-20T00:43:55;11.07;;;4.87;;
14903;SDS011;7543;53.148;8.234;2022-11-20T00:46:24;10.40;;;4.90;;
14903;SDS011;7543;53.148;8.234;2022-11-20T00:48:53;10.87;;;5.27;;
14903;SDS011;7543;53.148;8.234;2022-11-20T00:51:22;8.83;;;4.90;;
14903;SDS011;7543;53.148;8.234;2022-11-20T00:53:51;7.60;;;4.30;;
14903;SDS011;7543;53.148;8.234;2022-11-20T00:56:19;10.63;;;4.40;;
14903;SDS011;7543;53.148;8.234;2022-11-20T00:58:49;10.43;;;5.30;;
14903;SDS011;7543;53.148;8.234;2022-11-20T01:01:18;15.60;;;4.90;;
14903;SDS011;7543;53.148;8.234;2022-11-20T01:03:48;7.37;;;4.77;;
14903;SDS011;7543;53.148;8.234;2022-11-20T01:06:17;8.57;;;4.40;;
14903;SDS011;7543;53.148;8.234;2022-11-20T01:08:47;8.47;;;4.40;;
14903;SDS011;7543;53.148;8.234;2022-11-20T01:11:16;9.13;;;4.30;;
14903;SDS011;7543;53.148;8.234;2022-11-20T01:13:46;10.00;;;4.77;;
14903;SDS011;7543;53.148;8.234;2022-11-20T01:16:17;7.80;;;4.30;;
14903;SDS011;7543;53.148;8.234;2022-11-20T01:18:47;8.83;;;4.03;;
14903;SDS011;7543;53.148;8.234;2022-11-20T01:21:17;12.03;;;4.63;;
14903;SDS011;7543;53.148;8.234;2022-11-20T01:23:47;11.87;;;4.70;;
14903;SDS011;7543;53.148;8.234;2022-11-20T01:26:16;8.43;;;4.57;;
14903;SDS011;7543;53.148;8.234;2022-11-20T01:28:46;9.47;;;4.90;;
14903;SDS011;7543;53.148;8.234;2022-11-20T01:31:16;12.40;;;5.17;;
14903;SDS011;7543;53.148;8.234;2022-11-20T01:33:46;7.70;;;4.00;;
14903;SDS011;7543;53.148;8.234;2022-11-20T01:36:15;14.43;;;4.87;;
14903;SDS011;7543;53.148;8.234;2022-11-20T01:38:44;8.87;;;5.00;;
14903;SDS011;7543;53.148;8.234;2022-11-20T01:41:13;10.23;;;4.53;;
14903;SDS011;7543;53.148;8.234;2022-11-20T01:44:03;9.37;;;4.63;;
14903;SDS011;7543;53.148;8.234;2022-11-20T01:46:32;6.90;;;4.50;;
14903;SDS011;7543;53.148;8.234;2022-11-20T01:49:04;9.07;;;5.20;;
14903;SDS011;7543;53.148;8.234;2022-11-20T01:51:38;9.57;;;4.63;;
14903;SDS011;7543;53.148;8.234;2022-11-20T01:54:09;10.27;;;5.30;;
14903;SDS011;7543;53.148;8.234;2022-11-20T01:56:40;9.40;;;4.60;;
14903;SDS011;7543;53.148;8.234;2022-11-20T01:59:11;8.33;;;4.40;;
14903;SDS011;7543;53.148;8.234;2022-11-20T02:01:43;7.13;;;3.73;;
14903;SDS011;7543;53.148;8.234;2022-11-20T02:04:11;8.80;;;4.43;;
14903;SDS011;7543;53.148;8.234;2022-11-20T02:06:40;8.83;;;4.27;;
14903;SDS011;7543;53.148;8.234;2022-11-20T02:09:10;7.63;;;4.23;;
14903;SDS011;7543;53.148;8.234;2022-11-20T02:11:38;9.87;;;4.60;;
14903;SDS011;7543;53.148;8.234;2022-11-20T02:14:06;8.10;;;4.67;;
14903;SDS011;7543;53.148;8.234;2022-11-20T02:16:34;7.43;;;4.10;;
14903;SDS011;7543;53.148;8.234;2022-11-20T02:19:06;8.47;;;3.90;;
14903;SDS011;7543;53.148;8.234;2022-11-20T02:21:37;8.60;;;4.93;;
14903;SDS011;7543;53.148;8.234;2022-11-20T02:24:10;7.80;;;4.40;;
14903;SDS011;7543;53.148;8.234;2022-11-20T02:26:41;13.60;;;4.43;;
14903;SDS011;7543;53.148;8.234;2022-11-20T02:29:12;10.63;;;4.73;;
14903;SDS011;7543;53.148;8.234;2022-11-20T02:31:42;9.43;;;4.60;;
14903;SDS011;7543;53.148;8.234;2022-11-20T02:34:10;8.53;;;4.40;;
14903;SDS011;7543;53.148;8.234;2022-11-20T02:36:39;9.83;;;4.57;;
14903;SDS011;7543;53.148;8.234;2022-11-20T02:39:10;7.30;;;3.87;;
14903;SDS011;7543;53.148;8.234;2022-11-20T02:41:39;9.00;;;4.27;;
14903;SDS011;7543;53.148;8.234;2022-11-20T02:44:07;10.60;;;5.00;;
14903;SDS011;7543;53.148;8.234;2022-11-20T02:46:36;19.37;;;4.27;;
14903;SDS011;7543;53.148;8.234;2022-11-20T02:49:04;8.57;;;4.57;;
14903;SDS011;7543;53.148;8.234;2022-11-20T02:51:33;5.97;;;3.40;;
14903;SDS011;7543;53.148;8.234;2022-11-20T02:54:01;7.47;;;4.17;;
14903;SDS011;7543;53.148;8.234;2022-11-20T02:56:30;8.97;;;3.77;;
14903;SDS011;7543;53.148;8.234;2022-11-20T02:58:58;8.10;;;3.97;;
14903;SDS011;7543;53.148;8.234;2022-11-20T03:01:27;5.43;;;3.10;;
14903;SDS011;7543;53.148;8.234;2022-11-20T03:03:55;7.30;;;3.13;;
14903;SDS011;7543;53.148;8.234;2022-11-20T03:06:23;5.97;;;3.27;;
14903;SDS011;7543;53.148;8.234;2022-11-20T03:08:51;7.10;;;3.93;;
14903;SDS011;7543;53.148;8.234;2022-11-20T03:11:19;7.07;;;3.10;;
14903;SDS011;7543;53.148;8.234;2022-11-20T03:13:49;7.33;;;3.80;;
14903;SDS011;7543;53.148;8.234;2022-11-20T03:16:18;8.57;;;4.37;;
14903;SDS011;7543;53.148;8.234;2022-11-20T03:18:47;6.23;;;3.20;;
14903;SDS011;7543;53.148;8.234;2022-11-20T03:21:16;7.83;;;4.03;;
14903;SDS011;7543;53.148;8.234;2022-11-20T03:23:44;6.80;;;3.87;;
14903;SDS011;7543;53.148;8.234;2022-11-20T03:26:13;5.83;;;3.83;;
14903;SDS011;7543;53.148;8.234;2022-11-20T03:28:45;6.83;;;3.87;;
14903;SDS011;7543;53.148;8.234;2022-11-20T03:31:16;6.33;;;3.60;;
14903;SDS011;7543;53.148;8.234;2022-11-20T03:33:45;5.30;;;3.30;;
14903;SDS011;7543;53.148;8.234;2022-11-20T03:36:14;7.60;;;3.27;;
14903;SDS011;7543;53.148;8.234;2022-11-20T03:38:43;6.60;;;3.57;;
14903;SDS011;7543;53.148;8.234;2022-11-20T03:41:12;7.37;;;3.90;;
14903;SDS011;7543;53.148;8.234;2022-11-20T03:43:41;8.07;;;3.90;;
14903;SDS011;7543;53.148;8.234;2022-11-20T03:46:09;5.63;;;3.20;;
14903;SDS011;7543;53.148;8.234;2022-11-20T03:48:39;8.47;;;4.07;;
14903;SDS011;7543;53.148;8.234;2022-11-20T03:51:08;10.10;;;3.57;;
14903;SDS011;7543;53.148;8.234;2022-11-20T03:53:37;7.20;;;3.27;;
14903;SDS011;7543;53.148;8.234;2022-11-20T03:56:05;5.53;;;3.03;;
14903;SDS011;7543;53.148;8.234;2022-11-20T03:58:35;7.00;;;3.47;;
14903;SDS011;7543;53.148;8.234;2022-11-20T04:01:04;6.93;;;2.97;;
14903;SDS011;7543;53.148;8.234;2022-11-20T04:03:34;6.07;;;3.23;;
14903;SDS011;7543;53.148;8.234;2022-11-20T04:06:04;8.00;;;3.43;;
14903;SDS011;7543;53.148;8.234;2022-11-20T04:08:33;7.43;;;3.30;;
14903;SDS011;7543;53.148;8.234;2022-11-20T04:11:11;6.50;;;3.53;;
14903;SDS011;7543;53.148;8.234;2022-11-20T04:13:40;6.43;;;3.40;;
14903;SDS011;7543;53.148;8.234;2022-11-20T04:16:09;8.10;;;4.00;;
14903;SDS011;7543;53.148;8.234;2022-11-20T04:18:37;5.90;;;3.40;;
14903;SDS011;7543;53.148;8.234;2022-11-20T04:21:07;7.20;;;3.57;;
14903;SDS011;7543;53.148;8.234;2022-11-20T04:23:35;7.27;;;3.27;;
14903;SDS011;7543;53.148;8.234;2022-11-20T04:26:04;7.23;;;3.70;;
14903;SDS011;7543;53.148;8.234;2022-11-20T04:28:33;5.93;;;3.07;;
14903;SDS011;7543;53.148;8.234;2022-11-20T04:31:02;7.47;;;3.37;;
14903;SDS011;7543;53.148;8.234;2022-11-20T04:33:31;4.60;;;2.97;;
14903;SDS011;7543;53.148;8.234;2022-11-20T04:36:00;5.83;;;3.20;;
14903;SDS011;7543;53.148;8.234;2022-11-20T04:38:30;4.87;;;3.00;;
14903;SDS011;7543;53.148;8.234;2022-11-20T04:40:59;3.90;;;2.60;;
14903;SDS011;7543;53.148;8.234;2022-11-20T04:43:27;5.07;;;3.03;;
14903;SDS011;7543;53.148;8.234;2022-11-20T04:45:56;7.63;;;2.67;;
14903;SDS011;7543;53.148;8.234;2022-11-20T04:48:25;4.07;;;2.60;;
14903;SDS011;7543;53.148;8.234;2022-11-20T04:50:54;5.03;;;2.90;;
14903;SDS011;7543;53.148;8.234;2022-11-20T04:53:22;5.93;;;3.00;;
14903;SDS011;7543;53.148;8.234;2022-11-20T04:55:52;6.03;;;3.30;;
14903;SDS011;7543;53.148;8.234;2022-11-20T04:58:27;7.23;;;3.13;;
14903;SDS011;7543;53.148;8.234;2022-11-20T05:01:00;4.97;;;2.97;;
14903;SDS011;7543;53.148;8.234;2022-11-20T05:03:30;5.17;;;2.50;;
14903;SDS011;7543;53.148;8.234;2022-11-20T05:05:59;4.70;;;2.50;;
14903;SDS011;7543;53.148;8.234;2022-11-20T05:08:28;5.23;;;2.90;;
14903;SDS011;7543;53.148;8.234;2022-11-20T05:11:00;8.07;;;2.63;;
14903;SDS011;7543;53.148;8.234;2022-11-20T05:13:29;5.17;;;3.43;;
14903;SDS011;7543;53.148;8.234;2022-11-20T05:16:01;5.27;;;2.40;;
14903;SDS011;7543;53.148;8.234;2022-11-20T05:18:30;6.30;;;2.67;;
14903;SDS011;7543;53.148;8.234;2022-11-20T05:20:58;5.70;;;3.03;;
14903;SDS011;7543;53.148;8.234;2022-11-20T05:23:28;5.50;;;3.10;;
14903;SDS011;7543;53.148;8.234;2022-11-20T05:25:57;5.50;;;2.70;;
14903;SDS011;7543;53.148;8.234;2022-11-20T05:28:27;3.83;;;2.70;;
14903;SDS011;7543;53.148;8.234;2022-11-20T05:30:55;5.03;;;2.70;;
14903;SDS011;7543;53.148;8.234;2022-11-20T05:33:24;5.33;;;2.97;;
14903;SDS011;7543;53.148;8.234;2022-11-20T05:35:52;5.33;;;2.80;;
14903;SDS011;7543;53.148;8.234;2022-11-20T05:38:20;3.23;;;2.23;;
14903;SDS011;7543;53.148;8.234;2022-11-20T05:40:48;9.63;;;3.40;;
14903;SDS011;7543;53.148;8.234;2022-11-20T05:43:16;4.23;;;3.10;;
14903;SDS011;7543;53.148;8.234;2022-11-20T05:45:52;6.87;;;3.20;;
14903;SDS011;7543;53.148;8.234;2022-11-20T05:48:21;4.53;;;2.73;;
14903;SDS011;7543;53.148;8.234;2022-11-20T05:50:49;7.20;;;3.20;;
14903;SDS011;7543;53.148;8.234;2022-11-20T05:53:17;8.23;;;3.20;;
14903;SDS011;7543;53.148;8.234;2022-11-20T05:55:45;6.00;;;3.10;;
14903;SDS011;7543;53.148;8.234;2022-11-20T05:58:13;5.67;;;3.47;;
14903;SDS011;7543;53.148;8.234;2022-11-20T06:00:42;8.07;;;3.90;;
14903;SDS011;7543;53.148;8.234;2022-11-20T06:03:11;5.87;;;3.57;;
14903;SDS011;7543;53.148;8.234;2022-11-20T06:05:39;5.23;;;3.10;;
14903;SDS011;7543;53.148;8.234;2022-11-20T06:08:07;6.63;;;3.50;;
14903;SDS011;7543;53.148;8.234;2022-11-20T06:10:35;6.50;;;3.47;;
14903;SDS011;7543;53.148;8.234;2022-11-20T06:13:03;7.17;;;3.67;;
14903;SDS011;7543;53.148;8.234;2022-11-20T06:15:31;4.90;;;3.03;;
14903;SDS011;7543;53.148;8.234;2022-11-20T06:17:59;7.87;;;3.63;;
14903;SDS011;7543;53.148;8.234;2022-11-20T06:20:29;6.47;;;3.07;;
14903;SDS011;7543;53.148;8.234;2022-11-20T06:22:57;6.23;;;3.40;;
14903;SDS011;7543;53.148;8.234;2022-11-20T06:25:25;5.73;;;3.27;;
14903;SDS011;7543;53.148;8.234;2022-11-20T06:27:53;6.67;;;3.70;;
14903;SDS011;7543;53.148;8.234;2022-11-20T06:30:21;6.50;;;3.20;;
14903;SDS011;7543;53.148;8.234;2022-11-20T06:32:50;6.67;;;3.73;;
14903;SDS011;7543;53.148;8.234;2022-11-20T06:35:18;6.90;;;2.87;;
14903;SDS011;7543;53.148;8.234;2022-11-20T06:37:47;7.07;;;3.87;;
14903;SDS011;7543;53.148;8.234;2022-11-20T06:40:15;7.37;;;3.80;;
14903;SDS011;7543;53.148;8.234;2022-11-20T06:42:43;7.63;;;4.10;;
14903;SDS011;7543;53.148;8.234;2022-11-20T06:45:11;7.63;;;4.03;;
14903;SDS011;7543;53.148;8.234;2022-11-20T06:47:40;7.57;;;3.80;;
14903;SDS011;7543;53.148;8.234;2022-11-20T06:50:08;7.90;;;3.47;;
14903;SDS011;7543;53.148;8.234;2022-11-20T06:52:36;10.60;;;3.97;;
14903;SDS011;7543;53.148;8.234;2022-11-20T06:55:06;7.37;;;3.80;;
14903;SDS011;7543;53.148;8.234;2022-11-20T06:57:35;6.23;;;3.60;;
14903;SDS011;7543;53.148;8.234;2022-11-20T07:00:03;8.30;;;3.93;;
14903;SDS011;7543;53.148;8.234;2022-11-20T07:02:32;6.93;;;3.70;;
14903;SDS011;7543;53.148;8.234;2022-11-20T07:05:00;5.87;;;3.30;;
14903;SDS011;7543;53.148;8.234;2022-11-20T07:07:28;7.77;;;3.83;;
14903;SDS011;7543;53.148;8.234;2022-11-20T07:09:57;6.60;;;3.50;;
14903;SDS011;7543;53.148;8.234;2022-11-20T07:12:27;8.63;;;3.90;;
14903;SDS011;7543;53.148;8.234;2022-11-20T07:14:55;8.03;;;3.83;;
14903;SDS011;7543;53.148;8.234;2022-11-20T07:17:23;10.27;;;4.10;;
14903;SDS011;7543;53.148;8.234;2022-11-20T07:19:51;6.43;;;3.80;;
14903;SDS011;7543;53.148;8.234;2022-11-20T07:22:19;8.03;;;4.47;;
14903;SDS011;7543;53.148;8.234;2022-11-20T07:24:48;8.63;;;4.33;;
14903;SDS011;7543;53.148;8.234;2022-11-20T07:27:16;11.73;;;4.70;;
14903;SDS011;7543;53.148;8.234;2022-11-20T07:29:45;8.30;;;4.10;;
14903;SDS011;7543;53.148;8.234;2022-11-20T07:32:14;7.83;;;4.33;;
14903;SDS011;7543;53.148;8.234;2022-11-20T07:34:42;8.87;;;4.43;;
14903;SDS011;7543;53.148;8.234;2022-11-20T07:37:10;7.40;;;4.27;;
14903;SDS011;7543;53.148;8.234;2022-11-20T07:39:38;10.07;;;4.73;;
14903;SDS011;7543;53.148;8.234;2022-11-20T07:42:06;10.63;;;4.97;;
14903;SDS011;7543;53.148;8.234;2022-11-20T07:44:37;6.70;;;3.87;;
14903;SDS011;7543;53.148;8.234;2022-11-20T07:47:07;9.07;;;4.67;;
14903;SDS011;7543;53.148;8.234;2022-11-20T07:49:35;7.97;;;4.00;;
14903;SDS011;7543;53.148;8.234;2022-11-20T07:52:03;6.20;;;3.77;;
14903;SDS011;7543;53.148;8.234;2022-11-20T07:54:31;7.10;;;4.07;;
14903;SDS011;7543;53.148;8.234;2022-11-20T07:56:59;9.20;;;4.40;;
14903;SDS011;7543;53.148;8.234;2022-11-20T07:59:27;9.97;;;4.60;;
14903;SDS011;7543;53.148;8.234;2022-11-20T08:01:56;11.43;;;4.73;;
14903;SDS011;7543;53.148;8.234;2022-11-20T08:04:25;8.43;;;4.57;;
14903;SDS011;7543;53.148;8.234;2022-11-20T08:06:53;7.23;;;4.37;;
14903;SDS011;7543;53.148;8.234;2022-11-20T08:09:21;9.77;;;4.20;;
14903;SDS011;7543;53.148;8.234;2022-11-20T08:11:49;9.63;;;4.40;;
14903;SDS011;7543;53.148;8.234;2022-11-20T08:14:35;12.03;;;5.00;;
14903;SDS011;7543;53.148;8.234;2022-11-20T08:17:03;7.33;;;3.97;;
14903;SDS011;7543;53.148;8.234;2022-11-20T08:19:33;9.97;;;4.70;;
14903;SDS011;7543;53.148;8.234;2022-11-20T08:22:01;6.63;;;4.27;;
14903;SDS011;7543;53.148;8.234;2022-11-20T08:24:29;8.37;;;4.97;;
14903;SDS011;7543;53.148;8.234;2022-11-20T08:26:57;9.07;;;4.67;;
14903;SDS011;7543;53.148;8.234;2022-11-20T08:29:26;8.17;;;4.23;;
14903;SDS011;7543;53.148;8.234;2022-11-20T08:31:54;10.53;;;4.50;;
14903;SDS011;7543;53.148;8.234;2022-11-20T08:34:23;7.63;;;4.37;;
14903;SDS011;7543;53.148;8.234;2022-11-20T08:36:52;8.00;;;4.63;;
14903;SDS011;7543;53.148;8.234;2022-11-20T08:39:20;7.47;;;4.73;;
14903;SDS011;7543;53.148;8.234;2022-11-20T08:41:49;9.30;;;4.83;;
14903;SDS011;7543;53.148;8.234;2022-11-20T08:44:17;9.20;;;4.53;;
14903;SDS011;7543;53.148;8.234;2022-11-20T08:46:45;8.97;;;4.90;;
14903;SDS011;7543;53.148;8.234;2022-11-20T08:49:13;6.70;;;4.40;;
14903;SDS011;7543;53.148;8.234;2022-11-20T08:51:42;8.80;;;4.93;;
14903;SDS011;7543;53.148;8.234;2022-11-20T08:54:12;12.07;;;4.97;;
14903;SDS011;7543;53.148;8.234;2022-11-20T08:56:41;10.50;;;4.30;;
14903;SDS011;7543;53.148;8.234;2022-11-20T08:59:09;10.43;;;4.13;;
14903;SDS011;7543;53.148;8.234;2022-11-20T09:01:37;9.23;;;4.50;;
14903;SDS011;7543;53.148;8.234;2022-11-20T09:04:06;9.57;;;4.83;;
14903;SDS011;7543;53.148;8.234;2022-11-20T09:06:34;8.40;;;4.40;;
14903;SDS011;7543;53.148;8.234;2022-11-20T09:09:02;9.13;;;4.53;;
14903;SDS011;7543;53.148;8.234;2022-11-20T09:11:32;9.57;;;5.20;;
14903;SDS011;7543;53.148;8.234;2022-11-20T09:14:00;8.37;;;4.33;;
14903;SDS011;7543;53.148;8.234;2022-11-20T09:16:29;9.77;;;4.60;;
14903;SDS011;7543;53.148;8.234;2022-11-20T09:18:57;6.80;;;4.43;;
14903;SDS011;7543;53.148;8.234;2022-11-20T09:21:25;9.33;;;4.60;;
14903;SDS011;7543;53.148;8.234;2022-11-20T09:23:53;6.50;;;3.83;;
14903;SDS011;7543;53.148;8.234;2022-11-20T09:26:21;9.83;;;4.67;;
14903;SDS011;7543;53.148;8.234;2022-11-20T09:28:51;7.83;;;4.33;;
14903;SDS011;7543;53.148;8.234;2022-11-20T09:31:21;10.67;;;4.70;;
14903;SDS011;7543;53.148;8.234;2022-11-20T09:33:50;8.57;;;4.30;;
14903;SDS011;7543;53.148;8.234;2022-11-20T09:36:18;7.27;;;4.10;;
14903;SDS011;7543;53.148;8.234;2022-11-20T09:38:46;8.93;;;4.80;;
14903;SDS011;7543;53.148;8.234;2022-11-20T09:41:20;9.33;;;4.17;;
14903;SDS011;7543;53.148;8.234;2022-11-20T09:44:07;8.80;;;4.90;;
14903;SDS011;7543;53.148;8.234;2022-11-20T09:46:47;7.83;;;4.10;;
14903;SDS011;7543;53.148;8.234;2022-11-20T09:49:23;6.77;;;3.47;;
14903;SDS011;7543;53.148;8.234;2022-11-20T09:51:57;8.17;;;4.20;;
14903;SDS011;7543;53.148;8.234;2022-11-20T09:58:16;6.27;;;3.93;;
14903;SDS011;7543;53.148;8.234;2022-11-20T10:00:50;8.43;;;4.33;;
14903;SDS011;7543;53.148;8.234;2022-11-20T10:03:19;7.20;;;3.90;;
14903;SDS011;7543;53.148;8.234;2022-11-20T10:05:54;8.40;;;4.40;;
14903;SDS011;7543;53.148;8.234;2022-11-20T10:08:23;7.73;;;4.37;;
14903;SDS011;7543;53.148;8.234;2022-11-20T10:10:54;10.73;;;3.63;;
14903;SDS011;7543;53.148;8.234;2022-11-20T10:13:30;9.43;;;4.27;;
14903;SDS011;7543;53.148;8.234;2022-11-20T10:16:10;7.77;;;4.00;;
14903;SDS011;7543;53.148;8.234;2022-11-20T10:18:50;7.40;;;4.30;;
14903;SDS011;7543;53.148;8.234;2022-11-20T10:21:27;7.23;;;4.13;;
14903;SDS011;7543;53.148;8.234;2022-11-20T10:24:07;7.17;;;4.20;;
14903;SDS011;7543;53.148;8.234;2022-11-20T10:26:52;9.50;;;4.87;;
14903;SDS011;7543;53.148;8.234;2022-11-20T10:29:26;8.37;;;4.27;;
14903;SDS011;7543;53.148;8.234;2022-11-20T10:32:01;8.57;;;3.73;;
14903;SDS011;7543;53.148;8.234;2022-11-20T10:34:31;6.93;;;4.30;;
14903;SDS011;7543;53.148;8.234;2022-11-20T10:37:04;7.53;;;4.43;;
14903;SDS011;7543;53.148;8.234;2022-11-20T10:39:38;8.13;;;3.83;;
14903;SDS011;7543;53.148;8.234;2022-11-20T10:42:11;5.77;;;3.30;;
14903;SDS011;7543;53.148;8.234;2022-11-20T10:44:42;9.20;;;4.50;;
14903;SDS011;7543;53.148;8.234;2022-11-20T10:47:36;7.40;;;3.80;;
14903;SDS011;7543;53.148;8.234;2022-11-20T10:50:05;8.50;;;4.03;;
14903;SDS011;7543;53.148;8.234;2022-11-20T10:52:39;6.13;;;3.60;;
14903;SDS011;7543;53.148;8.234;2022-11-20T10:55:17;6.17;;;3.80;;
14903;SDS011;7543;53.148;8.234;2022-11-20T10:57:54;6.70;;;3.80;;
14903;SDS011;7543;53.148;8.234;2022-11-20T11:00:25;7.90;;;3.73;;
14903;SDS011;7543;53.148;8.234;2022-11-20T11:02:54;7.17;;;3.80;;
14903;SDS011;7543;53.148;8.234;2022-11-20T11:05:36;8.33;;;4.23;;
14903;SDS011;7543;53.148;8.234;2022-11-20T11:08:08;5.43;;;3.13;;
14903;SDS011;7543;53.148;8.234;2022-11-20T11:10:42;7.27;;;3.27;;
14903;SDS011;7543;53.148;8.234;2022-11-20T11:13:19;5.67;;;3.23;;
14903;SDS011;7543;53.148;8.234;2022-11-20T11:15:49;5.40;;;3.43;;
14903;SDS011;7543;53.148;8.234;2022-11-20T11:18:25;6.97;;;3.70;;
14903;SDS011;7543;53.148;8.234;2022-11-20T11:20:54;9.63;;;4.17;;
14903;SDS011;7543;53.148;8.234;2022-11-20T11:23:28;9.27;;;4.00;;
14903;SDS011;7543;53.148;8.234;2022-11-20T11:25:59;9.13;;;3.73;;
14903;SDS011;7543;53.148;8.234;2022-11-20T11:28:28;4.43;;;2.87;;
14903;SDS011;7543;53.148;8.234;2022-11-20T11:30:56;5.73;;;3.47;;
14903;SDS011;7543;53.148;8.234;2022-11-20T11:33:26;5.07;;;3.00;;
14903;SDS011;7543;53.148;8.234;2022-11-20T11:35:56;8.97;;;3.90;;
14903;SDS011;7543;53.148;8.234;2022-11-20T11:38:28;8.73;;;4.07;;
14903;SDS011;7543;53.148;8.234;2022-11-20T11:40:57;5.17;;;3.57;;
14903;SDS011;7543;53.148;8.234;2022-11-20T11:43:26;6.37;;;3.70;;
14903;SDS011;7543;53.148;8.234;2022-11-20T11:46:21;7.37;;;3.37;;
14903;SDS011;7543;53.148;8.234;2022-11-20T11:49:01;6.40;;;3.57;;
14903;SDS011;7543;53.148;8.234;2022-11-20T11:51:47;8.47;;;3.60;;
14903;SDS011;7543;53.148;8.234;2022-11-20T11:54:24;8.80;;;3.70;;
14903;SDS011;7543;53.148;8.234;2022-11-20T11:56:56;5.53;;;3.27;;
14903;SDS011;7543;53.148;8.234;2022-11-20T11:59:27;7.37;;;3.63;;
14903;SDS011;7543;53.148;8.234;2022-11-20T12:01:58;4.90;;;3.03;;
14903;SDS011;7543;53.148;8.234;2022-11-20T12:04:35;5.30;;;2.83;;
14903;SDS011;7543;53.148;8.234;2022-11-20T12:07:10;7.03;;;4.10;;
14903;SDS011;7543;53.148;8.234;2022-11-20T12:09:41;6.17;;;3.27;;
14903;SDS011;7543;53.148;8.234;2022-11-20T12:12:12;5.40;;;3.27;;
14903;SDS011;7543;53.148;8.234;2022-11-20T12:14:45;5.97;;;3.47;;
14903;SDS011;7543;53.148;8.234;2022-11-20T12:17:14;7.53;;;3.50;;
14903;SDS011;7543;53.148;8.234;2022-11-20T12:19:45;7.70;;;3.43;;
14903;SDS011;7543;53.148;8.234;2022-11-20T12:22:16;6.63;;;3.10;;
14903;SDS011;7543;53.148;8.234;2022-11-20T12:24:52;7.07;;;3.87;;
14903;SDS011;7543;53.148;8.234;2022-11-20T12:27:28;5.93;;;3.47;;
14903;SDS011;7543;53.148;8.234;2022-11-20T12:30:07;6.83;;;2.87;;
14903;SDS011;7543;53.148;8.234;2022-11-20T12:32:53;4.63;;;3.10;;
14903;SDS011;7543;53.148;8.234;2022-11-20T12:35:44;8.67;;;3.60;;
14903;SDS011;7543;53.148;8.234;2022-11-20T12:38:27;6.23;;;3.03;;
14903;SDS011;7543;53.148;8.234;2022-11-20T12:41:03;8.93;;;3.10;;
14903;SDS011;7543;53.148;8.234;2022-11-20T12:43:34;7.30;;;3.50;;
14903;SDS011;7543;53.148;8.234;2022-11-20T12:46:30;6.10;;;2.90;;
14903;SDS011;7543;53.148;8.234;2022-11-20T12:49:04;6.87;;;3.60;;
14903;SDS011;7543;53.148;8.234;2022-11-20T12:51:50;4.80;;;2.90;;
14903;SDS011;7543;53.148;8.234;2022-11-20T12:54:30;3.80;;;2.90;;
14903;SDS011;7543;53.148;8.234;2022-11-20T12:57:09;6.57;;;3.30;;
14903;SDS011;7543;53.148;8.234;2022-11-20T12:59:49;6.00;;;3.43;;
14903;SDS011;7543;53.148;8.234;2022-11-20T13:02:26;4.80;;;2.83;;
14903;SDS011;7543;53.148;8.234;2022-11-20T13:05:06;6.03;;;3.00;;
14903;SDS011;7543;53.148;8.234;2022-11-20T13:07:49;6.70;;;3.20;;
14903;SDS011;7543;53.148;8.234;2022-11-20T13:14:09;5.17;;;2.97;;
14903;SDS011;7543;53.148;8.234;2022-11-20T13:16:44;6.93;;;3.23;;
14903;SDS011;7543;53.148;8.234;2022-11-20T13:19:15;5.83;;;3.13;;
14903;SDS011;7543;53.148;8.234;2022-11-20T13:21:44;8.80;;;3.43;;
14903;SDS011;7543;53.148;8.234;2022-11-20T13:24:24;7.23;;;3.40;;
14903;SDS011;7543;53.148;8.234;2022-11-20T13:27:04;6.80;;;3.33;;
14903;SDS011;7543;53.148;8.234;2022-11-20T13:29:44;5.13;;;3.33;;
14903;SDS011;7543;53.148;8.234;2022-11-20T13:32:14;4.07;;;2.63;;
14903;SDS011;7543;53.148;8.234;2022-11-20T13:34:52;7.90;;;3.37;;
14903;SDS011;7543;53.148;8.234;2022-11-20T13:37:25;4.43;;;2.80;;
14903;SDS011;7543;53.148;8.234;2022-11-20T13:40:10;4.43;;;2.53;;
14903;SDS011;7543;53.148;8.234;2022-11-20T13:42:40;7.10;;;3.30;;
14903;SDS011;7543;53.148;8.234;2022-11-20T13:45:21;6.17;;;3.33;;
14903;SDS011;7543;53.148;8.234;2022-11-20T13:47:50;7.20;;;3.07;;
14903;SDS011;7543;53.148;8.234;2022-11-20T13:50:19;4.63;;;2.90;;
14903;SDS011;7543;53.148;8.234;2022-11-20T13:53:06;4.87;;;2.80;;
14903;SDS011;7543;53.148;8.234;2022-11-20T13:55:44;5.33;;;2.97;;
14903;SDS011;7543;53.148;8.234;2022-11-20T13:58:20;5.27;;;2.80;;
14903;SDS011;7543;53.148;8.234;2022-11-20T14:00:56;4.37;;;2.60;;
14903;SDS011;7543;53.148;8.234;2022-11-20T14:03:27;5.50;;;3.30;;
14903;SDS011;7543;53.148;8.234;2022-11-20T14:05:57;7.20;;;3.70;;
14903;SDS011;7543;53.148;8.234;2022-11-20T14:08:31;5.63;;;2.80;;
14903;SDS011;7543;53.148;8.234;2022-11-20T14:11:11;5.17;;;3.30;;
14903;SDS011;7543;53.148;8.234;2022-11-20T14:13:51;7.17;;;3.63;;
14903;SDS011;7543;53.148;8.234;2022-11-20T14:16:20;6.37;;;3.37;;
14903;SDS011;7543;53.148;8.234;2022-11-20T14:18:49;8.33;;;3.03;;
14903;SDS011;7543;53.148;8.234;2022-11-20T14:21:28;7.57;;;3.40;;
14903;SDS011;7543;53.148;8.234;2022-11-20T14:24:03;6.50;;;3.00;;
14903;SDS011;7543;53.148;8.234;2022-11-20T14:26:33;6.40;;;2.93;;
14903;SDS011;7543;53.148;8.234;2022-11-20T14:29:03;6.47;;;3.50;;
14903;SDS011;7543;53.148;8.234;2022-11-20T14:31:31;4.40;;;2.87;;
14903;SDS011;7543;53.148;8.234;2022-11-20T14:33:59;5.77;;;3.07;;
14903;SDS011;7543;53.148;8.234;2022-11-20T14:36:30;5.53;;;3.27;;
14903;SDS011;7543;53.148;8.234;2022-11-20T14:38:58;4.80;;;3.00;;
14903;SDS011;7543;53.148;8.234;2022-11-20T14:41:26;5.00;;;2.97;;
14903;SDS011;7543;53.148;8.234;2022-11-20T14:43:56;3.93;;;2.67;;
14903;SDS011;7543;53.148;8.234;2022-11-20T14:46:25;6.57;;;3.33;;
14903;SDS011;7543;53.148;8.234;2022-11-20T14:48:53;4.77;;;3.03;;
14903;SDS011;7543;53.148;8.234;2022-11-20T14:51:23;4.83;;;3.07;;
14903;SDS011;7543;53.148;8.234;2022-11-20T14:53:55;5.67;;;3.40;;
14903;SDS011;7543;53.148;8.234;2022-11-20T14:56:23;4.83;;;3.03;;
14903;SDS011;7543;53.148;8.234;2022-11-20T14:58:56;6.13;;;3.50;;
14903;SDS011;7543;53.148;8.234;2022-11-20T15:01:25;5.90;;;3.33;;
14903;SDS011;7543;53.148;8.234;2022-11-20T15:03:59;6.33;;;3.53;;
14903;SDS011;7543;53.148;8.234;2022-11-20T15:06:29;6.77;;;3.40;;
14903;SDS011;7543;53.148;8.234;2022-11-20T15:08:58;7.20;;;4.23;;
14903;SDS011;7543;53.148;8.234;2022-11-20T15:11:27;6.20;;;4.03;;
14903;SDS011;7543;53.148;8.234;2022-11-20T15:14:02;7.80;;;4.10;;
14903;SDS011;7543;53.148;8.234;2022-11-20T15:16:32;6.23;;;3.80;;
14903;SDS011;7543;53.148;8.234;2022-11-20T15:19:00;6.83;;;3.63;;
14903;SDS011;7543;53.148;8.234;2022-11-20T15:21:30;7.93;;;4.03;;
14903;SDS011;7543;53.148;8.234;2022-11-20T15:23:58;7.73;;;4.00;;
14903;SDS011;7543;53.148;8.234;2022-11-20T15:26:27;8.70;;;4.60;;
14903;SDS011;7543;53.148;8.234;2022-11-20T15:28:55;7.20;;;4.47;;
14903;SDS011;7543;53.148;8.234;2022-11-20T15:31:25;9.10;;;4.17;;
14903;SDS011;7543;53.148;8.234;2022-11-20T15:33:53;8.57;;;4.30;;
14903;SDS011;7543;53.148;8.234;2022-11-20T15:36:21;6.57;;;4.00;;
14903;SDS011;7543;53.148;8.234;2022-11-20T15:38:49;4.53;;;3.10;;